Time;durP1;ratioP1;P1;durP2;ratioP2;P2;SDS_P1;SDS_P2;PMS_P1;PMS_P2;Temp;Humidity;BMP_temperature;BMP_pressure;BME280_temperature;BME280_humidity;BME280_pressure;Samples;Min_cycle;Max_cycle;Signal;HPM_P1;HPM_P2
2023/09/14 00:00:50;;;;;;;6.90;2.90;;;;;;;22.83;56.10;100666.91;107988;1286;22026;-72
2023/09/14 00:03:15;;;;;;;5.40;3.30;;;;;;;22.82;56.13;100667.67;108066;1288;21986;-71
2023/09/14 00:05:42;;;;;;;4.90;3.10;;;;;;;22.81;56.08;100668.09;108027;1288;22013;-58
2023/09/14 00:08:08;;;;;;;4.80;2.90;;;;;;;22.80;56.03;100670.11;108026;1286;23575;-57
2023/09/14 00:10:34;;;;;;;4.90;2.90;;;;;;;22.79;56.09;100665.73;108033;1288;21992;-57
2023/09/14 00:13:00;;;;;;;4.80;2.60;;;;;;;22.78;56.02;100661.50;108020;1288;21990;-58
2023/09/14 00:15:25;;;;;;;3.90;2.90;;;;;;;22.78;56.07;100656.50;108086;1288;21992;-72
2023/09/14 00:17:51;;;;;;;5.40;3.50;;;;;;;22.79;56.30;100649.98;108004;1287;22002;-72
2023/09/14 00:20:22;;;;;;;6.80;3.60;;;;;;;22.80;56.30;100652.60;108015;1288;21998;-58
2023/09/14 00:22:49;;;;;;;;;;;;;;;22.81;56.40;100651.30;108059;1288;21998;-72
2023/09/14 00:25:14;;;;;;;4.40;2.90;;;;;;;22.80;56.52;100654.20;108004;1277;21997;-58
2023/09/14 00:27:40;;;;;;;5.60;3.10;;;;;;;22.81;56.52;100654.52;107993;1288;22000;-72
2023/09/14 00:30:06;;;;;;;5.40;2.90;;;;;;;22.81;56.67;100649.83;108000;1287;21992;-73
2023/09/14 00:32:38;;;;;;;5.10;2.90;;;;;;;22.82;56.87;100650.55;108024;1280;22013;-57
2023/09/14 00:35:05;;;;;;;8.70;3.60;;;;;;;22.80;56.79;100648.88;108025;1288;22037;-57
2023/09/14 00:37:31;;;;;;;7.70;3.20;;;;;;;22.79;56.83;100648.03;108055;1288;22000;-57
2023/09/14 00:39:57;;;;;;;6.30;3.60;;;;;;;22.77;56.90;100648.48;108016;1280;22005;-69
2023/09/14 00:42:22;;;;;;;8.30;4.00;;;;;;;22.76;56.86;100647.50;108042;1283;22167;-58
2023/09/14 00:44:48;;;;;;;6.20;3.40;;;;;;;22.76;56.98;100642.67;107992;1283;21958;-73
2023/09/14 00:47:13;;;;;;;5.40;3.30;;;;;;;22.76;57.30;100638.19;107997;1288;22004;-72
2023/09/14 00:49:39;;;;;;;4.50;3.20;;;;;;;22.77;57.39;100632.23;107899;1288;21996;-71
2023/09/14 00:52:05;;;;;;;5.70;3.40;;;;;;;22.78;57.48;100632.85;108021;1288;23654;-74
2023/09/14 00:54:30;;;;;;;5.10;3.10;;;;;;;22.80;57.52;100630.06;107939;1288;21990;-74
2023/09/14 00:56:56;;;;;;;5.60;3.30;;;;;;;22.82;57.67;100625.85;108033;1287;21992;-57
2023/09/14 00:59:21;;;;;;;9.10;3.60;;;;;;;22.83;57.48;100625.56;108015;1288;22009;-74
2023/09/14 01:01:47;;;;;;;5.50;3.20;;;;;;;22.84;57.54;100624.30;107821;1288;21996;-74
2023/09/14 01:04:13;;;;;;;4.00;3.20;;;;;;;22.83;57.40;100625.44;108016;1288;21992;-73
2023/09/14 01:06:38;;;;;;;7.50;3.60;;;;;;;22.82;57.38;100622.45;108012;1288;21992;-73
2023/09/14 01:09:05;;;;;;;5.60;3.40;;;;;;;22.82;57.28;100622.66;108061;1280;22007;-57
2023/09/14 01:11:30;;;;;;;4.60;3.20;;;;;;;22.80;57.08;100620.74;108052;1288;22002;-74
2023/09/14 01:14:10;;;;;;;6.30;3.20;;;;;;;22.79;57.18;100619.05;107863;1288;21992;-57
2023/09/14 01:17:01;;;;;;;4.70;3.10;;;;;;;22.78;57.16;100617.87;107832;1286;22038;-74
2023/09/14 01:19:41;;;;;;;4.00;3.40;;;;;;;22.77;57.22;100614.32;108016;1283;21997;-74
2023/09/14 01:22:29;;;;;;;6.60;3.10;;;;;;;22.75;57.07;100613.89;108011;1288;21993;-74
2023/09/14 01:25:01;;;;;;;5.10;2.90;;;;;;;22.74;57.08;100610.58;108045;1284;22093;-59
2023/09/14 01:27:27;;;;;;;4.90;3.20;;;;;;;22.72;57.23;100611.22;108046;1288;21997;-58
2023/09/14 01:29:56;;;;;;;4.20;3.30;;;;;;;22.70;57.26;100610.25;107894;1288;21996;-74
2023/09/14 01:32:21;;;;;;;5.30;3.20;;;;;;;22.70;57.44;100611.15;108056;1287;21996;-58
2023/09/14 01:34:47;;;;;;;6.30;3.10;;;;;;;22.71;57.60;100609.32;108072;1288;21990;-74
2023/09/14 01:37:12;;;;;;;4.50;3.70;;;;;;;22.69;57.61;100608.52;107897;1288;21989;-57
2023/09/14 01:39:38;;;;;;;5.50;3.60;;;;;;;22.70;57.80;100608.50;107816;1286;22001;-57
2023/09/14 01:42:04;;;;;;;6.00;3.60;;;;;;;22.70;57.87;100608.11;107906;1288;21997;-71
2023/09/14 01:44:30;;;;;;;5.70;4.00;;;;;;;22.71;58.44;100608.63;107790;1288;22002;-57
2023/09/14 01:46:55;;;;;;;4.50;3.50;;;;;;;22.71;58.45;100604.67;108051;1280;21989;-57
2023/09/14 01:49:21;;;;;;;5.30;3.90;;;;;;;22.72;59.02;100604.79;108057;1288;21992;-74
2023/09/14 01:51:47;;;;;;;5.80;4.00;;;;;;;22.74;59.06;100603.80;108035;1283;23061;-57
2023/09/14 01:54:12;;;;;;;5.80;3.80;;;;;;;22.79;59.25;100603.50;108063;1281;21982;-57
2023/09/14 01:56:38;;;;;;;7.20;4.20;;;;;;;22.81;59.68;100604.26;108078;1288;22012;-57
2023/09/14 01:59:03;;;;;;;7.00;3.90;;;;;;;22.82;59.70;100599.92;108074;1288;22466;-75
2023/09/14 02:01:29;;;;;;;5.70;3.60;;;;;;;22.81;59.72;100600.48;108013;1288;21988;-60
2023/09/14 02:03:55;;;;;;;5.40;3.20;;;;;;;22.82;59.71;100600.96;108051;1288;21998;-57
2023/09/14 02:06:20;;;;;;;6.60;3.90;;;;;;;22.82;59.77;100598.63;108046;1281;21997;-74
2023/09/14 02:08:46;;;;;;;4.60;3.70;;;;;;;22.84;59.84;100596.77;108031;1287;23615;-75
2023/09/14 02:11:13;;;;;;;7.80;4.50;;;;;;;22.83;59.91;100596.63;108083;1285;21990;-75
2023/09/14 02:13:42;;;;;;;4.50;3.60;;;;;;;22.83;60.18;100597.19;108131;1287;21992;-76
2023/09/14 02:16:08;;;;;;;8.00;4.70;;;;;;;22.82;60.11;100595.98;108071;1285;21989;-59
2023/09/14 02:18:33;;;;;;;7.00;4.90;;;;;;;22.82;60.45;100595.27;108021;1286;22456;-57
2023/09/14 02:20:59;;;;;;;7.70;4.90;;;;;;;22.81;60.72;100590.84;108044;1288;22004;-76
2023/09/14 02:23:24;;;;;;;8.60;5.10;;;;;;;22.79;60.73;100589.54;108004;1283;21992;-63
2023/09/14 02:25:50;;;;;;;12.60;5.60;;;;;;;22.79;60.82;100590.81;108084;1288;21990;-76
2023/09/14 02:28:15;;;;;;;7.20;4.50;;;;;;;22.80;60.74;100590.02;108087;1288;21992;-76
2023/09/14 02:30:41;;;;;;;7.60;4.40;;;;;;;22.81;60.73;100590.11;108103;1284;21997;-58
2023/09/14 02:33:10;;;;;;;7.20;4.90;;;;;;;22.82;60.91;100590.63;108094;1287;21990;-58
2023/09/14 02:35:36;;;;;;;6.00;4.00;;;;;;;22.80;60.90;100590.55;108091;1288;21997;-57
2023/09/14 02:38:02;;;;;;;6.10;4.40;;;;;;;22.79;60.57;100593.29;108057;1280;22003;-75
2023/09/14 02:40:29;;;;;;;6.00;4.10;;;;;;;22.80;60.89;100592.15;108058;1288;22028;-76
2023/09/14 02:42:55;;;;;;;7.60;4.70;;;;;;;22.81;61.00;100593.52;108038;1288;23065;-58
2023/09/14 02:45:20;;;;;;;6.60;4.30;;;;;;;22.80;61.07;100589.46;108024;1283;23116;-57
2023/09/14 02:47:46;;;;;;;8.50;4.70;;;;;;;22.79;61.06;100592.05;108021;1288;22204;-57
2023/09/14 02:50:11;;;;;;;9.40;4.90;;;;;;;22.79;61.12;100590.58;108014;1288;22456;-77
2023/09/14 02:52:37;;;;;;;5.50;4.70;;;;;;;22.81;61.05;100594.56;108018;1288;21984;-60
2023/09/14 02:55:03;;;;;;;5.60;4.70;;;;;;;22.82;61.37;100590.25;108004;1286;21991;-57
2023/09/14 02:57:29;;;;;;;5.90;4.70;;;;;;;22.82;61.53;100587.88;107958;1284;23608;-77
2023/09/14 02:59:55;;;;;;;10.10;5.30;;;;;;;22.84;62.00;100587.94;108036;1288;21995;-57
2023/09/14 03:02:24;;;;;;;7.70;4.10;;;;;;;22.85;61.84;100586.99;107974;1286;22045;-76
2023/09/14 03:04:50;;;;;;;8.30;4.70;;;;;;;22.87;62.20;100587.05;108003;1283;21991;-77
2023/09/14 03:07:16;;;;;;;8.80;5.20;;;;;;;22.91;62.17;100586.83;107683;1288;21995;-58
2023/09/14 03:09:41;;;;;;;9.30;4.80;;;;;;;22.95;62.47;100587.66;108127;1278;21993;-78
2023/09/14 03:12:07;;;;;;;9.00;4.70;;;;;;;22.98;62.52;100587.98;108073;1288;21993;-59
2023/09/14 03:14:32;;;;;;;8.50;4.80;;;;;;;23.01;62.33;100589.06;108059;1280;21988;-76
2023/09/14 03:16:58;;;;;;;8.10;5.00;;;;;;;23.05;62.52;100587.27;108056;1286;23405;-61
2023/09/14 03:19:24;;;;;;;8.30;4.80;;;;;;;23.08;62.48;100592.27;108013;1288;21995;-76
2023/09/14 03:21:50;;;;;;;6.70;4.60;;;;;;;23.11;62.30;100592.59;108004;1280;21999;-58
2023/09/14 03:24:15;;;;;;;5.80;4.60;;;;;;;23.13;62.43;100594.29;108008;1286;22000;-57
2023/09/14 03:26:41;;;;;;;9.60;4.90;;;;;;;23.13;62.42;100596.98;108018;1284;21993;-78
2023/09/14 03:29:06;;;;;;;9.00;4.90;;;;;;;23.14;62.27;100595.14;108039;1286;21986;-57
2023/09/14 03:31:32;;;;;;;7.30;5.00;;;;;;;23.15;62.26;100594.86;108031;1288;22029;-57
2023/09/14 03:33:58;;;;;;;6.00;4.50;;;;;;;23.17;62.27;100594.05;108042;1283;22029;-57
2023/09/14 03:36:23;;;;;;;6.00;4.50;;;;;;;23.17;62.15;100592.77;108023;1288;21996;-57
2023/09/14 03:38:49;;;;;;;10.00;4.90;;;;;;;23.16;62.22;100595.13;107822;1288;21970;-74
2023/09/14 03:41:15;;;;;;;10.40;5.20;;;;;;;23.15;62.12;100592.17;108006;1280;21989;-57
2023/09/14 03:43:41;;;;;;;12.70;6.20;;;;;;;23.14;62.19;100593.70;108051;1277;22028;-78
2023/09/14 03:46:07;;;;;;;6.40;4.70;;;;;;;23.13;62.29;100594.97;108064;1286;22002;-77
2023/09/14 03:48:33;;;;;;;9.00;4.80;;;;;;;23.14;62.16;100600.30;108059;1288;22179;-77
2023/09/14 03:50:59;;;;;;;11.00;5.20;;;;;;;23.15;62.03;100599.88;107821;1287;22662;-58
2023/09/14 03:53:25;;;;;;;9.00;4.90;;;;;;;23.16;61.99;100598.39;108029;1288;21992;-63
2023/09/14 03:55:52;;;;;;;9.30;5.30;;;;;;;23.17;62.09;100594.75;108041;1288;21995;-58
2023/09/14 03:58:18;;;;;;;8.30;4.30;;;;;;;23.18;61.89;100595.60;108065;1288;22036;-58
2023/09/14 04:00:44;;;;;;;7.20;4.50;;;;;;;23.16;61.86;100594.06;107800;1286;22003;-58
2023/09/14 04:03:10;;;;;;;9.50;4.80;;;;;;;23.13;61.80;100596.24;108066;1288;22005;-60
2023/09/14 04:05:36;;;;;;;12.10;5.20;;;;;;;23.11;61.75;100596.89;108076;1286;22005;-76
2023/09/14 04:08:02;;;;;;;13.70;5.50;;;;;;;23.10;61.68;100594.29;107986;1288;21987;-57
2023/09/14 04:10:28;;;;;;;11.60;5.20;;;;;;;23.11;61.58;100601.73;108047;1288;22007;-77
2023/09/14 04:12:57;;;;;;;13.50;6.20;;;;;;;23.09;61.79;100605.77;108026;1288;21990;-57
2023/09/14 04:15:22;;;;;;;7.80;5.10;;;;;;;23.07;61.85;100603.59;108091;1288;22014;-57
2023/09/14 04:17:48;;;;;;;8.80;5.70;;;;;;;23.08;62.40;100601.75;108003;1287;22004;-79
2023/09/14 04:20:14;;;;;;;8.80;5.10;;;;;;;23.10;62.89;100602.86;108049;1286;22003;-57
2023/09/14 04:22:40;;;;;;;7.00;4.90;;;;;;;23.13;63.40;100601.25;108043;1283;21999;-75
2023/09/14 04:25:06;;;;;;;9.30;5.90;;;;;;;23.16;64.22;100600.86;108015;1283;22011;-68
2023/09/14 04:27:32;;;;;;;8.50;5.70;;;;;;;23.23;64.62;100597.82;108068;1286;23626;-61
2023/09/14 04:29:58;;;;;;;7.40;5.30;;;;;;;23.29;65.08;100596.73;108068;1280;21990;-82
2023/09/14 04:32:23;;;;;;;9.60;5.60;;;;;;;23.36;65.67;100593.77;107984;1288;22005;-57
2023/09/14 04:34:49;;;;;;;12.20;6.00;;;;;;;23.45;65.73;100595.58;108006;1288;22080;-75
2023/09/14 04:37:15;;;;;;;8.00;5.70;;;;;;;23.53;65.51;100594.70;108022;1288;22049;-75
2023/09/14 04:39:40;;;;;;;9.50;5.80;;;;;;;23.61;65.80;100593.14;108062;1288;22009;-73
2023/09/14 04:42:06;;;;;;;15.40;6.80;;;;;;;23.69;65.68;100595.14;108134;1278;21993;-57
2023/09/14 04:44:32;;;;;;;16.40;6.00;;;;;;;23.76;65.66;100592.34;108075;1286;21992;-57
2023/09/14 04:46:57;;;;;;;14.50;6.10;;;;;;;23.83;65.47;100588.64;107991;1288;21990;-57
2023/09/14 04:49:23;;;;;;;11.00;5.60;;;;;;;23.91;65.57;100583.81;108015;1286;21999;-74
2023/09/14 04:51:49;;;;;;;9.80;5.40;;;;;;;24.01;65.49;100580.73;108030;1288;21996;-73
2023/09/14 04:54:14;;;;;;;8.50;5.80;;;;;;;24.09;65.85;100582.72;108003;1283;21992;-73
2023/09/14 04:56:40;;;;;;;10.40;6.50;;;;;;;24.17;66.31;100580.41;108054;1280;21990;-74
2023/09/14 04:59:05;;;;;;;8.40;5.60;;;;;;;24.25;66.21;100583.28;107974;1288;23265;-73
2023/09/14 05:01:31;;;;;;;7.80;5.40;;;;;;;24.34;66.23;100586.07;107979;1287;21991;-58
2023/09/14 05:03:56;;;;;;;9.10;6.00;;;;;;;24.45;66.21;100589.34;107992;1283;21993;-57
2023/09/14 05:06:22;;;;;;;12.30;5.70;;;;;;;24.55;66.49;100587.35;108032;1283;21995;-73
2023/09/14 05:08:48;;;;;;;9.00;5.80;;;;;;;24.66;66.50;100586.83;108060;1283;21999;-70
2023/09/14 05:11:13;;;;;;;6.70;5.40;;;;;;;24.77;66.21;100590.79;108021;1286;21996;-72
2023/09/14 05:13:39;;;;;;;8.70;5.40;;;;;;;24.87;66.39;100593.14;108025;1277;22012;-72
2023/09/14 05:16:04;;;;;;;9.20;5.40;;;;;;;24.96;66.26;100593.41;108075;1288;22009;-57
2023/09/14 05:18:30;;;;;;;8.50;5.30;;;;;;;25.06;65.87;100594.34;108042;1288;21982;-72
2023/09/14 05:20:56;;;;;;;7.60;4.90;;;;;;;25.17;66.10;100591.06;108017;1284;21989;-57
2023/09/14 05:23:22;;;;;;;8.60;5.50;;;;;;;25.27;66.25;100588.17;108074;1283;21987;-72
2023/09/14 05:25:47;;;;;;;6.50;4.60;;;;;;;25.40;66.71;100588.16;108017;1277;21991;-72
2023/09/14 05:28:14;;;;;;;13.30;5.00;;;;;;;25.54;66.51;100587.42;107842;1286;21983;-72
2023/09/14 05:30:40;;;;;;;7.80;5.10;;;;;;;25.67;66.87;100583.09;107739;1282;21990;-73
2023/09/14 05:33:05;;;;;;;7.40;5.10;;;;;;;25.80;66.76;100583.36;107866;1283;22000;-72
2023/09/14 05:35:31;;;;;;;9.80;5.10;;;;;;;25.95;66.40;100583.52;107879;1289;21995;-60
2023/09/14 05:37:57;;;;;;;6.00;4.90;;;;;;;26.08;65.93;100578.59;107941;1289;21975;-63
2023/09/14 05:40:23;;;;;;;6.50;4.90;;;;;;;26.21;65.77;100576.65;107869;1277;22027;-70
2023/09/14 05:42:48;;;;;;;6.60;5.30;;;;;;;26.31;65.42;100574.77;107867;1285;21997;-58
2023/09/14 05:45:14;;;;;;;8.00;5.20;;;;;;;26.42;65.47;100575.90;107947;1283;21999;-73
2023/09/14 05:47:39;;;;;;;10.10;4.90;;;;;;;26.54;65.21;100576.45;107951;1285;22010;-59
2023/09/14 05:50:10;;;;;;;29.60;7.60;;;;;;;26.65;65.02;100574.52;107985;1288;22080;-65
2023/09/14 05:52:35;;;;;;;7.40;4.80;;;;;;;26.77;65.34;100571.67;108087;1288;21997;-59
2023/09/14 05:55:03;;;;;;;11.20;5.40;;;;;;;26.88;64.80;100573.17;107988;1288;21993;-59
2023/09/14 05:57:30;;;;;;;9.00;4.80;;;;;;;26.99;64.35;100575.05;108051;1288;22000;-70
2023/09/14 05:59:56;;;;;;;8.00;4.80;;;;;;;27.09;63.86;100574.02;108084;1280;22005;-71
2023/09/14 06:02:21;;;;;;;7.30;5.20;;;;;;;27.22;63.94;100579.20;108050;1283;21996;-70
2023/09/14 06:04:47;;;;;;;7.40;4.50;;;;;;;27.33;63.33;100577.04;108116;1288;22000;-59
2023/09/14 06:07:13;;;;;;;5.80;4.80;;;;;;;27.45;63.36;100575.77;108087;1288;21995;-71
2023/09/14 06:09:38;;;;;;;6.20;4.40;;;;;;;27.58;63.20;100574.91;108035;1279;22016;-63
2023/09/14 06:12:05;;;;;;;8.10;4.70;;;;;;;27.71;62.62;100573.81;108110;1283;21990;-72
2023/09/14 06:14:32;;;;;;;6.00;4.60;;;;;;;27.82;62.35;100576.92;108059;1277;21992;-73
2023/09/14 06:16:59;;;;;;;5.90;4.30;;;;;;;27.90;61.71;100572.11;108048;1286;21990;-58
2023/09/14 06:19:24;;;;;;;6.60;4.60;;;;;;;27.97;61.58;100574.75;108035;1283;22005;-58
2023/09/14 06:21:50;;;;;;;9.50;5.00;;;;;;;28.05;61.09;100576.65;108076;1280;21993;-72
2023/09/14 06:24:17;;;;;;;9.90;4.70;;;;;;;28.09;60.95;100577.73;108012;1288;21994;-59
2023/09/14 06:26:44;;;;;;;9.40;4.30;;;;;;;28.12;60.59;100578.09;107956;1288;22013;-70
2023/09/14 06:29:13;;;;;;;8.30;5.50;;;;;;;28.10;60.21;100581.42;107979;1288;22117;-68
2023/09/14 06:31:39;;;;;;;6.10;4.10;;;;;;;28.12;60.49;100584.96;108074;1288;22474;-59
2023/09/14 06:34:05;;;;;;;18.90;5.10;;;;;;;28.21;60.67;100587.47;108079;1288;21992;-59
2023/09/14 06:36:30;;;;;;;8.20;4.10;;;;;;;28.33;60.42;100590.36;108017;1280;21999;-71
2023/09/14 06:38:56;;;;;;;7.80;5.10;;;;;;;28.43;59.99;100591.91;108079;1288;21990;-71
2023/09/14 06:41:21;;;;;;;6.70;4.00;;;;;;;28.54;59.86;100594.24;108100;1288;21994;-71
2023/09/14 06:43:47;;;;;;;9.50;4.30;;;;;;;28.66;59.84;100593.39;108055;1283;21994;-60
2023/09/14 06:46:12;;;;;;;6.40;3.90;;;;;;;28.79;59.46;100592.86;108058;1283;23086;-71
2023/09/14 06:48:39;;;;;;;7.90;4.30;;;;;;;28.91;59.15;100596.52;108089;1286;22005;-71
2023/09/14 06:51:07;;;;;;;7.40;4.70;;;;;;;29.03;58.56;100599.81;108144;1288;22000;-71
2023/09/14 06:53:33;;;;;;;8.20;4.20;;;;;;;29.09;58.01;100597.88;108015;1280;22014;-71
2023/09/14 06:56:06;;;;;;;5.70;4.30;;;;;;;29.17;57.61;100598.63;108023;1288;21993;-71
2023/09/14 06:58:32;;;;;;;8.50;4.70;;;;;;;29.25;57.44;100599.52;108054;1288;23011;-71
2023/09/14 07:01:02;;;;;;;9.00;4.40;;;;;;;29.36;57.39;100601.52;108058;1285;21996;-71
2023/09/14 07:03:28;;;;;;;10.90;4.00;;;;;;;29.47;57.02;100601.61;107935;1288;23746;-71
2023/09/14 07:05:53;;;;;;;8.90;4.30;;;;;;;29.56;56.56;100600.08;108029;1286;21993;-59
2023/09/14 07:08:20;;;;;;;7.60;4.20;;;;;;;29.65;56.01;100599.33;108066;1288;21987;-71
2023/09/14 07:10:46;;;;;;;7.00;4.30;;;;;;;29.73;55.93;100595.76;107926;1289;22059;-59
2023/09/14 07:13:11;;;;;;;7.80;4.40;;;;;;;29.82;55.22;100592.33;108004;1289;21990;-63
2023/09/14 07:15:38;;;;;;;6.50;4.10;;;;;;;29.92;55.11;100594.23;108001;1289;21993;-59
2023/09/14 07:18:04;;;;;;;7.00;4.50;;;;;;;30.01;54.98;100591.23;107978;1289;21990;-59
2023/09/14 07:20:30;;;;;;;10.20;4.40;;;;;;;30.10;54.42;100592.98;107905;1283;22027;-70
2023/09/14 07:22:55;;;;;;;7.20;4.20;;;;;;;30.17;53.95;100596.35;107901;1289;22034;-71
2023/09/14 07:25:21;;;;;;;18.20;5.10;;;;;;;30.19;53.34;100591.39;107901;1287;23652;-70
2023/09/14 07:27:47;;;;;;;8.00;4.00;;;;;;;30.27;53.25;100587.59;107892;1289;22007;-59
2023/09/14 07:30:14;;;;;;;11.90;4.30;;;;;;;30.36;52.93;100589.30;107880;1283;21998;-59
2023/09/14 07:32:41;;;;;;;7.30;4.00;;;;;;;30.46;52.44;100586.92;107957;1289;22048;-59
2023/09/14 07:35:12;;;;;;;9.10;4.10;;;;;;;30.56;52.61;100591.48;107894;1277;21986;-59
2023/09/14 07:37:37;;;;;;;7.50;4.00;;;;;;;30.65;52.13;100591.85;107908;1280;21997;-69
2023/09/14 07:40:04;;;;;;;7.10;4.20;;;;;;;30.72;51.53;100588.52;107932;1283;22033;-70
2023/09/14 07:42:30;;;;;;;8.20;4.20;;;;;;;30.75;51.35;100586.48;107926;1289;21990;-58
2023/09/14 07:44:55;;;;;;;4.50;3.80;;;;;;;30.81;51.48;100584.98;107901;1289;21998;-70
2023/09/14 07:47:28;;;;;;;7.60;4.40;;;;;;;30.91;50.68;100582.80;107915;1289;22000;-71
2023/09/14 07:49:53;;;;;;;12.50;4.20;;;;;;;31.06;50.81;100581.69;107962;1289;21995;-67
2023/09/14 07:52:19;;;;;;;17.80;4.50;;;;;;;31.25;49.74;100581.55;107915;1280;21959;-58
2023/09/14 07:54:44;;;;;;;8.80;3.80;;;;;;;31.35;49.44;100586.02;107903;1283;21995;-68
2023/09/14 07:57:10;;;;;;;8.50;4.20;;;;;;;31.33;48.17;100580.80;107878;1289;22083;-68
2023/09/14 07:59:36;;;;;;;8.00;3.90;;;;;;;31.25;47.95;100578.77;107924;1289;22072;-68
2023/09/14 08:02:01;;;;;;;8.20;4.00;;;;;;;31.25;47.82;100577.67;107871;1289;22445;-59
2023/09/14 08:04:27;;;;;;;6.10;3.80;;;;;;;31.33;47.47;100575.52;107887;1276;21994;-67
2023/09/14 08:06:53;;;;;;;5.90;3.60;;;;;;;31.40;46.46;100574.48;107864;1289;22000;-67
2023/09/14 08:09:18;;;;;;;6.70;3.70;;;;;;;31.48;47.28;100571.70;107932;1288;22102;-68
2023/09/14 08:11:44;;;;;;;7.40;3.80;;;;;;;31.59;46.94;100571.21;108017;1288;22008;-68
2023/09/14 08:14:10;;;;;;;5.30;3.80;;;;;;;31.73;47.28;100564.77;108014;1283;21996;-58
2023/09/14 08:16:35;;;;;;;7.70;3.90;;;;;;;31.87;46.27;100567.54;108019;1283;21999;-69
2023/09/14 08:19:01;;;;;;;6.10;3.80;;;;;;;31.89;45.24;100567.64;108017;1288;22457;-59
2023/09/14 08:21:26;;;;;;;8.50;3.80;;;;;;;31.92;44.87;100566.11;108034;1288;22010;-69
2023/09/14 08:23:53;;;;;;;8.40;3.60;;;;;;;32.00;45.60;100566.39;107983;1286;21997;-59
2023/09/14 08:26:19;;;;;;;6.00;3.40;;;;;;;32.07;45.17;100562.30;108019;1288;22004;-59
2023/09/14 08:28:45;;;;;;;7.30;3.80;;;;;;;32.19;45.28;100558.33;108063;1278;23800;-64
2023/09/14 08:31:11;;;;;;;8.40;3.60;;;;;;;32.34;44.39;100561.92;107991;1288;22049;-69
2023/09/14 08:33:36;;;;;;;5.70;3.50;;;;;;;32.48;44.26;100558.67;108027;1288;22033;-59
2023/09/14 08:36:02;;;;;;;8.50;3.20;;;;;;;32.66;44.50;100555.19;108014;1288;22002;-67
2023/09/14 08:38:28;;;;;;;8.00;3.40;;;;;;;32.89;44.12;100550.36;108060;1288;21990;-68
2023/09/14 08:40:55;;;;;;;5.40;3.30;;;;;;;33.15;44.01;100548.15;108038;1288;21999;-76
2023/09/14 08:43:21;;;;;;;6.10;3.30;;;;;;;33.35;42.86;100548.27;108018;1288;21986;-58
2023/09/14 08:45:46;;;;;;;18.10;4.60;;;;;;;33.38;42.41;100551.37;107953;1288;21997;-60
2023/09/14 08:48:12;;;;;;;8.90;3.30;;;;;;;33.42;42.15;100544.30;107783;1288;21999;-71
2023/09/14 08:50:39;;;;;;;10.50;3.60;;;;;;;33.45;41.82;100541.91;107794;1288;21999;-58
2023/09/14 08:53:04;;;;;;;6.10;3.40;;;;;;;33.52;41.41;100542.16;107817;1288;22074;-83
2023/09/14 08:55:34;;;;;;;8.00;3.80;;;;;;;33.56;41.15;100545.27;107802;1288;22000;-58
2023/09/14 08:58:00;;;;;;;9.40;3.70;;;;;;;33.62;41.41;100540.98;108071;1276;21985;-80
2023/09/14 09:00:28;;;;;;;17.10;4.20;;;;;;;33.72;41.39;100531.58;108054;1286;22194;-71
2023/09/14 09:02:54;;;;;;;8.00;3.10;;;;;;;33.89;41.25;100533.77;108098;1288;21987;-82
2023/09/14 09:05:21;;;;;;;7.70;3.40;;;;;;;34.06;40.23;100529.39;108059;1280;21990;-79
2023/09/14 09:07:48;;;;;;;7.90;3.10;;;;;;;34.10;39.50;100522.54;108166;1286;22480;-58
2023/09/14 09:10:24;;;;;;;5.70;2.80;;;;;;;34.09;39.43;100524.46;108141;1288;22002;-81
2023/09/14 09:12:51;;;;;;;6.70;3.30;;;;;;;34.02;39.43;100522.91;108092;1288;22030;-83
2023/09/14 09:15:17;;;;;;;8.60;3.80;;;;;;;34.06;39.90;100521.74;108049;1288;22008;-78
2023/09/14 09:17:44;;;;;;;6.50;3.40;;;;;;;34.19;39.44;100518.15;108075;1288;21987;-58
2023/09/14 09:20:16;;;;;;;9.10;3.20;;;;;;;34.31;39.06;100517.93;108093;1288;23723;-59
2023/09/14 09:22:43;;;;;;;9.20;3.50;;;;;;;34.42;38.81;100517.84;108178;1284;21997;-60
2023/09/14 09:25:12;;;;;;;8.70;3.20;;;;;;;34.47;38.88;100515.75;108464;1288;21990;-59
2023/09/14 09:27:39;;;;;;;6.80;3.50;;;;;;;34.46;38.26;100516.67;108005;1288;22009;-81
2023/09/14 09:30:06;;;;;;;8.40;3.20;;;;;;;34.47;38.20;100510.29;108115;1282;21985;-59
2023/09/14 09:32:32;;;;;;;8.80;3.70;;;;;;;34.56;38.61;100507.92;108132;1288;21990;-59
2023/09/14 09:35:17;;;;;;;6.90;3.20;;;;;;;34.67;38.15;100508.95;108052;1283;21988;-59
2023/09/14 09:37:42;;;;;;;4.20;2.90;;;;;;;34.75;38.12;100506.14;108061;1288;22002;-59
2023/09/14 09:40:34;;;;;;;5.90;2.90;;;;;;;34.86;37.86;100506.48;108104;1288;21989;-59
2023/09/14 09:43:04;;;;;;;8.20;2.70;;;;;;;35.00;37.79;100505.13;108064;1288;22468;-80
2023/09/14 09:45:30;;;;;;;7.10;3.40;;;;;;;35.05;37.15;100508.61;108120;1288;22003;-59
2023/09/14 09:47:55;;;;;;;12.20;3.30;;;;;;;35.00;37.11;100511.12;107893;1288;21983;-83
2023/09/14 09:50:21;;;;;;;11.50;3.20;;;;;;;35.01;37.55;100503.31;107817;1289;21995;-59
2023/09/14 09:52:48;;;;;;;12.00;3.70;;;;;;;35.13;37.79;100500.20;107886;1289;21994;-61
2023/09/14 09:55:24;;;;;;;10.70;3.70;;;;;;;35.27;37.08;100496.20;108738;1289;21990;-81
2023/09/14 09:57:52;;;;;;;10.40;3.40;;;;;;;35.35;37.11;100498.91;108038;1289;22752;-86
2023/09/14 10:00:19;;;;;;;11.90;3.40;;;;;;;35.43;37.30;100499.06;108077;1289;22009;-60
2023/09/14 10:02:46;;;;;;;12.10;3.40;;;;;;;35.48;36.52;100498.40;107990;1279;21993;-81
2023/09/14 10:05:12;;;;;;;7.90;2.90;;;;;;;35.43;35.80;100492.70;108012;1289;21995;-59
2023/09/14 10:07:40;;;;;;;8.10;3.20;;;;;;;35.44;36.07;100492.79;107966;1283;21993;-85
2023/09/14 10:10:12;;;;;;;7.40;3.30;;;;;;;35.42;35.14;100496.33;108494;1289;21996;-59
2023/09/14 10:12:41;;;;;;;5.40;3.10;;;;;;;35.27;35.10;100493.12;108151;1289;22004;-58
2023/09/14 10:15:07;;;;;;;9.70;3.70;;;;;;;35.23;35.48;100486.82;107921;1289;22003;-74
2023/09/14 10:17:33;;;;;;;12.00;3.80;;;;;;;35.19;35.31;100484.55;107867;1289;21993;-58
2023/09/14 10:20:01;;;;;;;6.10;3.00;;;;;;;35.24;35.18;100487.08;107798;1288;22336;-58
2023/09/14 10:22:26;;;;;;;9.20;3.50;;;;;;;35.30;34.85;100488.77;108058;1288;22006;-74
2023/09/14 10:24:53;;;;;;;7.70;3.20;;;;;;;35.32;34.80;100487.94;107831;1286;22002;-73
2023/09/14 10:27:18;;;;;;;6.30;3.70;;;;;;;35.30;34.33;100486.42;107869;1288;22105;-60
2023/09/14 10:29:44;;;;;;;9.70;3.30;;;;;;;35.27;34.39;100488.03;108046;1288;22001;-59
2023/09/14 10:32:11;;;;;;;13.00;3.70;;;;;;;35.20;34.70;100485.36;108067;1280;21959;-59
2023/09/14 10:34:40;;;;;;;8.00;3.40;;;;;;;35.13;34.88;100482.98;108084;1288;21992;-59
2023/09/14 10:37:06;;;;;;;6.60;3.40;;;;;;;35.10;35.04;100485.51;108125;1288;21997;-69
2023/09/14 10:39:31;;;;;;;12.60;3.50;;;;;;;35.10;35.25;100484.40;108058;1283;21997;-59
2023/09/14 10:41:57;;;;;;;10.70;3.50;;;;;;;35.04;35.40;100490.92;107713;1288;22005;-60
2023/09/14 10:44:23;;;;;;;10.80;3.60;;;;;;;35.01;35.26;100486.95;108019;1286;21998;-69
2023/09/14 10:46:51;;;;;;;9.80;3.40;;;;;;;35.00;35.18;100485.66;107807;1288;21997;-60
2023/09/14 10:49:17;;;;;;;9.30;3.10;;;;;;;34.97;34.97;100489.35;107952;1288;22001;-68
2023/09/14 10:51:43;;;;;;;44.50;6.70;;;;;;;34.90;34.45;100486.41;107989;1282;22175;-59
2023/09/14 10:54:10;;;;;;;13.70;3.40;;;;;;;34.80;34.42;100486.63;107848;1279;22003;-68
2023/09/14 10:56:35;;;;;;;8.50;3.60;;;;;;;34.85;34.83;100486.05;107808;1288;21993;-68
2023/09/14 10:59:09;;;;;;;6.90;3.20;;;;;;;34.90;34.26;100484.22;107828;1279;21999;-68
2023/09/14 11:01:48;;;;;;;7.80;3.60;;;;;;;34.94;34.60;100480.77;108028;1288;21986;-60
2023/09/14 11:04:17;;;;;;;9.40;3.00;;;;;;;35.02;34.64;100481.79;108007;1286;22179;-59
2023/09/14 11:06:48;;;;;;;6.70;3.20;;;;;;;35.07;34.66;100484.05;108032;1279;22000;-69
2023/09/14 11:09:14;;;;;;;5.70;3.20;;;;;;;35.13;34.62;100474.14;108053;1288;21989;-69
2023/09/14 11:11:42;;;;;;;6.50;2.50;;;;;;;35.20;34.42;100466.96;108081;1288;23734;-68
2023/09/14 11:14:11;;;;;;;10.20;3.20;;;;;;;35.27;34.51;100468.09;107747;1288;23787;-68